sensor_id;sensor_type;location;lat;lon;timestamp;P1;durP1;ratioP1;P2;durP2;ratioP2
50988;SDS011;37008;52.210;21.112;2023-02-13T00:01:29;66.80;;;31.38;;
50988;SDS011;37008;52.210;21.112;2023-02-13T00:03:55;53.47;;;29.25;;
50988;SDS011;37008;52.210;21.112;2023-02-13T00:06:21;58.58;;;32.08;;
50988;SDS011;37008;52.210;21.112;2023-02-13T00:08:46;56.00;;;28.27;;
50988;SDS011;37008;52.210;21.112;2023-02-13T00:11:12;59.03;;;29.15;;
50988;SDS011;37008;52.210;21.112;2023-02-13T00:13:38;57.88;;;28.98;;
50988;SDS011;37008;52.210;21.112;2023-02-13T00:16:04;52.42;;;29.42;;
50988;SDS011;37008;52.210;21.112;2023-02-13T00:18:32;66.25;;;29.40;;
50988;SDS011;37008;52.210;21.112;2023-02-13T00:21:02;56.03;;;29.85;;
50988;SDS011;37008;52.210;21.112;2023-02-13T00:23:30;54.45;;;27.45;;
50988;SDS011;37008;52.210;21.112;2023-02-13T00:25:57;52.00;;;28.75;;
50988;SDS011;37008;52.210;21.112;2023-02-13T00:28:24;55.50;;;29.80;;
50988;SDS011;37008;52.210;21.112;2023-02-13T00:30:50;54.33;;;28.92;;
50988;SDS011;37008;52.210;21.112;2023-02-13T00:33:15;52.53;;;30.42;;
50988;SDS011;37008;52.210;21.112;2023-02-13T00:35:41;61.20;;;29.38;;
50988;SDS011;37008;52.210;21.112;2023-02-13T00:38:06;61.35;;;28.65;;
50988;SDS011;37008;52.210;21.112;2023-02-13T00:40:32;52.28;;;29.35;;
50988;SDS011;37008;52.210;21.112;2023-02-13T00:42:57;53.80;;;27.67;;
50988;SDS011;37008;52.210;21.112;2023-02-13T00:45:24;47.13;;;26.13;;
50988;SDS011;37008;52.210;21.112;2023-02-13T00:47:49;50.03;;;27.27;;
50988;SDS011;37008;52.210;21.112;2023-02-13T00:50:15;52.42;;;29.13;;
50988;SDS011;37008;52.210;21.112;2023-02-13T00:52:41;45.95;;;24.85;;
50988;SDS011;37008;52.210;21.112;2023-02-13T00:55:06;49.63;;;25.52;;
50988;SDS011;37008;52.210;21.112;2023-02-13T00:57:32;42.42;;;24.40;;
50988;SDS011;37008;52.210;21.112;2023-02-13T00:59:58;49.70;;;24.77;;
50988;SDS011;37008;52.210;21.112;2023-02-13T01:02:24;50.45;;;25.88;;
50988;SDS011;37008;52.210;21.112;2023-02-13T01:04:49;48.67;;;25.40;;
50988;SDS011;37008;52.210;21.112;2023-02-13T01:07:15;45.38;;;25.95;;
50988;SDS011;37008;52.210;21.112;2023-02-13T01:09:41;56.40;;;25.77;;
50988;SDS011;37008;52.210;21.112;2023-02-13T01:12:06;50.67;;;26.27;;
50988;SDS011;37008;52.210;21.112;2023-02-13T01:14:32;46.83;;;24.73;;
50988;SDS011;37008;52.210;21.112;2023-02-13T01:16:58;47.22;;;25.73;;
50988;SDS011;37008;52.210;21.112;2023-02-13T01:19:23;50.95;;;27.08;;
50988;SDS011;37008;52.210;21.112;2023-02-13T01:21:49;43.65;;;25.23;;
50988;SDS011;37008;52.210;21.112;2023-02-13T01:24:15;48.63;;;26.60;;
50988;SDS011;37008;52.210;21.112;2023-02-13T01:26:40;51.50;;;25.10;;
50988;SDS011;37008;52.210;21.112;2023-02-13T01:29:06;41.88;;;25.42;;
50988;SDS011;37008;52.210;21.112;2023-02-13T01:31:32;48.22;;;26.48;;
50988;SDS011;37008;52.210;21.112;2023-02-13T01:33:58;53.08;;;26.23;;
50988;SDS011;37008;52.210;21.112;2023-02-13T01:36:24;45.30;;;27.63;;
50988;SDS011;37008;52.210;21.112;2023-02-13T01:38:54;50.97;;;27.48;;
50988;SDS011;37008;52.210;21.112;2023-02-13T01:41:21;44.13;;;27.27;;
50988;SDS011;37008;52.210;21.112;2023-02-13T01:43:49;50.13;;;26.30;;
50988;SDS011;37008;52.210;21.112;2023-02-13T01:46:20;45.45;;;26.38;;
50988;SDS011;37008;52.210;21.112;2023-02-13T01:48:49;43.90;;;24.77;;
50988;SDS011;37008;52.210;21.112;2023-02-13T01:51:22;45.78;;;26.40;;
50988;SDS011;37008;52.210;21.112;2023-02-13T01:53:53;49.05;;;24.95;;
50988;SDS011;37008;52.210;21.112;2023-02-13T01:56:28;49.28;;;26.33;;
50988;SDS011;37008;52.210;21.112;2023-02-13T01:59:01;45.35;;;25.02;;
50988;SDS011;37008;52.210;21.112;2023-02-13T02:01:33;46.97;;;24.70;;
50988;SDS011;37008;52.210;21.112;2023-02-13T02:06:31;44.03;;;25.63;;
50988;SDS011;37008;52.210;21.112;2023-02-13T02:09:05;43.53;;;24.98;;
50988;SDS011;37008;52.210;21.112;2023-02-13T02:14:25;45.25;;;24.10;;
50988;SDS011;37008;52.210;21.112;2023-02-13T02:16:51;44.92;;;24.30;;
50988;SDS011;37008;52.210;21.112;2023-02-13T02:33:30;41.95;;;22.85;;
50988;SDS011;37008;52.210;21.112;2023-02-13T02:44:40;42.53;;;22.08;;
50988;SDS011;37008;52.210;21.112;2023-02-13T02:47:25;34.72;;;20.65;;
50988;SDS011;37008;52.210;21.112;2023-02-13T02:56:38;41.75;;;23.05;;
50988;SDS011;37008;52.210;21.112;2023-02-13T02:59:02;41.40;;;22.45;;
50988;SDS011;37008;52.210;21.112;2023-02-13T03:01:54;39.10;;;21.65;;
50988;SDS011;37008;52.210;21.112;2023-02-13T03:04:41;39.10;;;21.60;;
50988;SDS011;37008;52.210;21.112;2023-02-13T03:07:28;43.67;;;21.80;;
50988;SDS011;37008;52.210;21.112;2023-02-13T03:10:16;41.80;;;21.35;;
50988;SDS011;37008;52.210;21.112;2023-02-13T03:13:16;36.47;;;21.67;;
50988;SDS011;37008;52.210;21.112;2023-02-13T03:15:58;34.53;;;21.30;;
50988;SDS011;37008;52.210;21.112;2023-02-13T03:18:44;47.30;;;22.48;;
50988;SDS011;37008;52.210;21.112;2023-02-13T03:30:57;41.58;;;21.13;;
50988;SDS011;37008;52.210;21.112;2023-02-13T03:42:17;32.03;;;18.63;;
50988;SDS011;37008;52.210;21.112;2023-02-13T03:44:48;38.53;;;19.65;;
50988;SDS011;37008;52.210;21.112;2023-02-13T03:47:38;39.97;;;19.88;;
50988;SDS011;37008;52.210;21.112;2023-02-13T03:50:05;41.45;;;21.13;;
50988;SDS011;37008;52.210;21.112;2023-02-13T03:55:29;43.15;;;20.50;;
50988;SDS011;37008;52.210;21.112;2023-02-13T03:58:18;36.53;;;21.15;;
50988;SDS011;37008;52.210;21.112;2023-02-13T04:01:07;33.20;;;20.13;;
50988;SDS011;37008;52.210;21.112;2023-02-13T04:06:47;32.50;;;18.85;;
50988;SDS011;37008;52.210;21.112;2023-02-13T04:09:20;35.03;;;19.13;;
50988;SDS011;37008;52.210;21.112;2023-02-13T04:11:48;33.22;;;19.98;;
50988;SDS011;37008;52.210;21.112;2023-02-13T04:14:57;38.20;;;19.88;;
50988;SDS011;37008;52.210;21.112;2023-02-13T04:17:35;36.65;;;20.02;;
50988;SDS011;37008;52.210;21.112;2023-02-13T04:20:05;40.00;;;20.87;;
50988;SDS011;37008;52.210;21.112;2023-02-13T04:22:32;36.78;;;19.88;;
50988;SDS011;37008;52.210;21.112;2023-02-13T04:24:57;31.13;;;19.17;;
50988;SDS011;37008;52.210;21.112;2023-02-13T04:27:24;32.53;;;17.70;;
50988;SDS011;37008;52.210;21.112;2023-02-13T04:29:51;30.88;;;18.75;;
50988;SDS011;37008;52.210;21.112;2023-02-13T04:32:17;34.08;;;19.20;;
50988;SDS011;37008;52.210;21.112;2023-02-13T04:34:42;34.28;;;21.58;;
50988;SDS011;37008;52.210;21.112;2023-02-13T04:37:08;33.53;;;21.27;;
50988;SDS011;37008;52.210;21.112;2023-02-13T04:39:33;37.05;;;24.02;;
50988;SDS011;37008;52.210;21.112;2023-02-13T04:41:59;38.53;;;24.05;;
50988;SDS011;37008;52.210;21.112;2023-02-13T04:44:24;32.60;;;21.88;;
50988;SDS011;37008;52.210;21.112;2023-02-13T04:46:50;41.15;;;24.48;;
50988;SDS011;37008;52.210;21.112;2023-02-13T04:49:15;38.58;;;21.88;;
50988;SDS011;37008;52.210;21.112;2023-02-13T04:51:41;39.20;;;24.13;;
50988;SDS011;37008;52.210;21.112;2023-02-13T04:54:07;45.75;;;28.02;;
50988;SDS011;37008;52.210;21.112;2023-02-13T04:56:32;44.22;;;30.73;;
50988;SDS011;37008;52.210;21.112;2023-02-13T04:58:58;50.58;;;32.42;;
50988;SDS011;37008;52.210;21.112;2023-02-13T05:01:23;48.25;;;36.05;;
50988;SDS011;37008;52.210;21.112;2023-02-13T05:03:49;45.35;;;32.70;;
50988;SDS011;37008;52.210;21.112;2023-02-13T05:06:14;49.25;;;33.05;;
50988;SDS011;37008;52.210;21.112;2023-02-13T05:08:40;39.22;;;27.13;;
50988;SDS011;37008;52.210;21.112;2023-02-13T05:11:06;36.28;;;22.85;;
50988;SDS011;37008;52.210;21.112;2023-02-13T05:13:31;38.40;;;22.52;;
50988;SDS011;37008;52.210;21.112;2023-02-13T05:15:57;38.08;;;21.65;;
50988;SDS011;37008;52.210;21.112;2023-02-13T05:18:23;31.10;;;21.95;;
50988;SDS011;37008;52.210;21.112;2023-02-13T05:20:49;35.42;;;21.65;;
50988;SDS011;37008;52.210;21.112;2023-02-13T05:23:34;33.67;;;21.15;;
50988;SDS011;37008;52.210;21.112;2023-02-13T05:26:00;34.95;;;22.27;;
50988;SDS011;37008;52.210;21.112;2023-02-13T05:28:25;33.10;;;21.73;;
50988;SDS011;37008;52.210;21.112;2023-02-13T05:31:09;35.65;;;22.75;;
50988;SDS011;37008;52.210;21.112;2023-02-13T05:33:35;33.50;;;21.80;;
50988;SDS011;37008;52.210;21.112;2023-02-13T05:36:00;41.35;;;22.98;;
50988;SDS011;37008;52.210;21.112;2023-02-13T05:38:26;35.70;;;21.60;;
50988;SDS011;37008;52.210;21.112;2023-02-13T05:40:51;35.45;;;21.27;;
50988;SDS011;37008;52.210;21.112;2023-02-13T05:43:18;35.83;;;21.73;;
50988;SDS011;37008;52.210;21.112;2023-02-13T05:45:44;36.90;;;22.33;;
50988;SDS011;37008;52.210;21.112;2023-02-13T05:48:09;35.65;;;21.15;;
50988;SDS011;37008;52.210;21.112;2023-02-13T05:50:35;34.63;;;20.77;;
50988;SDS011;37008;52.210;21.112;2023-02-13T05:53:00;34.63;;;20.15;;
50988;SDS011;37008;52.210;21.112;2023-02-13T05:55:26;33.25;;;21.13;;
50988;SDS011;37008;52.210;21.112;2023-02-13T05:57:55;33.75;;;19.73;;
50988;SDS011;37008;52.210;21.112;2023-02-13T06:00:21;27.40;;;19.65;;
50988;SDS011;37008;52.210;21.112;2023-02-13T06:02:47;32.60;;;19.90;;
50988;SDS011;37008;52.210;21.112;2023-02-13T06:05:13;34.33;;;18.88;;
50988;SDS011;37008;52.210;21.112;2023-02-13T06:07:38;30.80;;;18.88;;
50988;SDS011;37008;52.210;21.112;2023-02-13T06:10:04;28.77;;;17.98;;
50988;SDS011;37008;52.210;21.112;2023-02-13T06:12:30;27.55;;;18.58;;
50988;SDS011;37008;52.210;21.112;2023-02-13T06:14:56;30.75;;;19.15;;
50988;SDS011;37008;52.210;21.112;2023-02-13T06:17:21;31.45;;;17.73;;
50988;SDS011;37008;52.210;21.112;2023-02-13T06:19:47;27.13;;;18.23;;
50988;SDS011;37008;52.210;21.112;2023-02-13T06:22:12;31.45;;;18.90;;
50988;SDS011;37008;52.210;21.112;2023-02-13T06:24:38;28.58;;;17.85;;
50988;SDS011;37008;52.210;21.112;2023-02-13T06:27:03;25.50;;;17.60;;
50988;SDS011;37008;52.210;21.112;2023-02-13T06:29:29;31.38;;;19.33;;
50988;SDS011;37008;52.210;21.112;2023-02-13T06:31:56;26.25;;;16.45;;
50988;SDS011;37008;52.210;21.112;2023-02-13T06:34:22;27.85;;;17.55;;
50988;SDS011;37008;52.210;21.112;2023-02-13T06:36:48;29.08;;;18.38;;
50988;SDS011;37008;52.210;21.112;2023-02-13T06:39:13;36.17;;;18.13;;
50988;SDS011;37008;52.210;21.112;2023-02-13T06:41:39;32.10;;;17.70;;
50988;SDS011;37008;52.210;21.112;2023-02-13T06:44:05;33.60;;;19.60;;
50988;SDS011;37008;52.210;21.112;2023-02-13T06:46:31;39.03;;;23.60;;
50988;SDS011;37008;52.210;21.112;2023-02-13T06:48:57;35.70;;;22.00;;
50988;SDS011;37008;52.210;21.112;2023-02-13T06:51:23;36.33;;;20.80;;
50988;SDS011;37008;52.210;21.112;2023-02-13T06:53:48;33.97;;;19.83;;
50988;SDS011;37008;52.210;21.112;2023-02-13T06:56:14;29.73;;;19.73;;
50988;SDS011;37008;52.210;21.112;2023-02-13T06:58:40;34.97;;;19.60;;
50988;SDS011;37008;52.210;21.112;2023-02-13T07:01:05;32.63;;;19.38;;
50988;SDS011;37008;52.210;21.112;2023-02-13T07:03:31;33.80;;;18.77;;
50988;SDS011;37008;52.210;21.112;2023-02-13T07:05:56;27.50;;;18.48;;
50988;SDS011;37008;52.210;21.112;2023-02-13T07:08:22;35.88;;;19.48;;
50988;SDS011;37008;52.210;21.112;2023-02-13T07:10:48;29.35;;;19.33;;
50988;SDS011;37008;52.210;21.112;2023-02-13T07:13:13;31.67;;;18.73;;
50988;SDS011;37008;52.210;21.112;2023-02-13T07:15:39;30.15;;;18.00;;
50988;SDS011;37008;52.210;21.112;2023-02-13T07:18:05;27.77;;;17.42;;
50988;SDS011;37008;52.210;21.112;2023-02-13T07:20:31;28.48;;;18.02;;
50988;SDS011;37008;52.210;21.112;2023-02-13T07:22:57;29.13;;;15.40;;
50988;SDS011;37008;52.210;21.112;2023-02-13T07:25:24;32.60;;;17.88;;
50988;SDS011;37008;52.210;21.112;2023-02-13T07:27:49;27.02;;;16.63;;
50988;SDS011;37008;52.210;21.112;2023-02-13T07:30:15;25.25;;;15.40;;
50988;SDS011;37008;52.210;21.112;2023-02-13T07:32:41;22.83;;;14.90;;
50988;SDS011;37008;52.210;21.112;2023-02-13T07:35:06;26.95;;;13.98;;
50988;SDS011;37008;52.210;21.112;2023-02-13T07:37:32;23.50;;;14.32;;
50988;SDS011;37008;52.210;21.112;2023-02-13T07:39:58;22.00;;;12.95;;
50988;SDS011;37008;52.210;21.112;2023-02-13T07:42:23;19.70;;;12.57;;
50988;SDS011;37008;52.210;21.112;2023-02-13T07:44:49;22.33;;;12.85;;
50988;SDS011;37008;52.210;21.112;2023-02-13T07:47:14;20.95;;;11.93;;
50988;SDS011;37008;52.210;21.112;2023-02-13T07:49:40;20.65;;;11.93;;
50988;SDS011;37008;52.210;21.112;2023-02-13T07:52:06;19.55;;;10.65;;
50988;SDS011;37008;52.210;21.112;2023-02-13T07:54:31;17.48;;;10.40;;
50988;SDS011;37008;52.210;21.112;2023-02-13T07:56:57;19.20;;;11.00;;
50988;SDS011;37008;52.210;21.112;2023-02-13T07:59:23;12.75;;;9.05;;
50988;SDS011;37008;52.210;21.112;2023-02-13T08:01:49;20.77;;;10.38;;
50988;SDS011;37008;52.210;21.112;2023-02-13T08:04:15;16.90;;;9.65;;
50988;SDS011;37008;52.210;21.112;2023-02-13T08:06:41;15.35;;;9.88;;
50988;SDS011;37008;52.210;21.112;2023-02-13T08:09:07;16.63;;;9.43;;
50988;SDS011;37008;52.210;21.112;2023-02-13T08:12:01;16.40;;;9.43;;
50988;SDS011;37008;52.210;21.112;2023-02-13T08:14:26;18.15;;;10.18;;
50988;SDS011;37008;52.210;21.112;2023-02-13T08:16:52;13.45;;;9.63;;
50988;SDS011;37008;52.210;21.112;2023-02-13T08:19:18;16.95;;;9.88;;
50988;SDS011;37008;52.210;21.112;2023-02-13T08:21:44;15.30;;;9.50;;
50988;SDS011;37008;52.210;21.112;2023-02-13T08:24:10;12.95;;;9.65;;
50988;SDS011;37008;52.210;21.112;2023-02-13T08:26:36;16.67;;;9.68;;
50988;SDS011;37008;52.210;21.112;2023-02-13T08:29:03;21.35;;;10.52;;
50988;SDS011;37008;52.210;21.112;2023-02-13T08:31:29;17.00;;;10.40;;
50988;SDS011;37008;52.210;21.112;2023-02-13T08:33:55;15.23;;;9.45;;
50988;SDS011;37008;52.210;21.112;2023-02-13T08:36:21;13.07;;;8.90;;
50988;SDS011;37008;52.210;21.112;2023-02-13T08:38:48;16.38;;;10.23;;
50988;SDS011;37008;52.210;21.112;2023-02-13T08:41:14;19.77;;;9.05;;
50988;SDS011;37008;52.210;21.112;2023-02-13T08:43:42;15.70;;;9.23;;
50988;SDS011;37008;52.210;21.112;2023-02-13T08:46:07;10.23;;;6.88;;
50988;SDS011;37008;52.210;21.112;2023-02-13T08:48:33;13.30;;;8.10;;
50988;SDS011;37008;52.210;21.112;2023-02-13T08:50:59;14.85;;;8.23;;
50988;SDS011;37008;52.210;21.112;2023-02-13T08:53:29;13.68;;;7.72;;
50988;SDS011;37008;52.210;21.112;2023-02-13T08:55:55;12.75;;;7.03;;
50988;SDS011;37008;52.210;21.112;2023-02-13T08:58:21;11.10;;;6.10;;
50988;SDS011;37008;52.210;21.112;2023-02-13T09:00:48;10.63;;;6.78;;
50988;SDS011;37008;52.210;21.112;2023-02-13T09:03:13;10.05;;;5.82;;
50988;SDS011;37008;52.210;21.112;2023-02-13T09:05:39;11.77;;;5.57;;
50988;SDS011;37008;52.210;21.112;2023-02-13T09:08:05;9.18;;;5.90;;
50988;SDS011;37008;52.210;21.112;2023-02-13T09:10:33;9.88;;;5.45;;
50988;SDS011;37008;52.210;21.112;2023-02-13T09:12:59;13.90;;;6.32;;
50988;SDS011;37008;52.210;21.112;2023-02-13T09:15:27;10.85;;;5.75;;
50988;SDS011;37008;52.210;21.112;2023-02-13T09:17:53;10.32;;;5.65;;
50988;SDS011;37008;52.210;21.112;2023-02-13T09:20:19;8.50;;;6.18;;
50988;SDS011;37008;52.210;21.112;2023-02-13T09:22:45;8.98;;;6.10;;
50988;SDS011;37008;52.210;21.112;2023-02-13T09:25:10;12.00;;;5.35;;
50988;SDS011;37008;52.210;21.112;2023-02-13T09:27:36;11.93;;;5.70;;
50988;SDS011;37008;52.210;21.112;2023-02-13T09:30:03;10.88;;;6.05;;
50988;SDS011;37008;52.210;21.112;2023-02-13T09:32:30;10.02;;;6.15;;
50988;SDS011;37008;52.210;21.112;2023-02-13T09:34:56;12.30;;;6.00;;
50988;SDS011;37008;52.210;21.112;2023-02-13T09:37:21;13.75;;;6.65;;
50988;SDS011;37008;52.210;21.112;2023-02-13T09:39:47;10.45;;;6.70;;
50988;SDS011;37008;52.210;21.112;2023-02-13T09:42:23;13.02;;;6.30;;
50988;SDS011;37008;52.210;21.112;2023-02-13T09:44:52;8.13;;;5.65;;
50988;SDS011;37008;52.210;21.112;2023-02-13T09:50:04;11.75;;;6.95;;
50988;SDS011;37008;52.210;21.112;2023-02-13T09:52:32;13.07;;;8.20;;
50988;SDS011;37008;52.210;21.112;2023-02-13T09:54:59;12.13;;;6.85;;
50988;SDS011;37008;52.210;21.112;2023-02-13T10:00:29;11.60;;;5.82;;
50988;SDS011;37008;52.210;21.112;2023-02-13T10:20:01;8.30;;;5.47;;
50988;SDS011;37008;52.210;21.112;2023-02-13T10:22:42;14.68;;;5.95;;
50988;SDS011;37008;52.210;21.112;2023-02-13T10:25:18;8.23;;;5.45;;
50988;SDS011;37008;52.210;21.112;2023-02-13T10:27:48;10.30;;;5.93;;
50988;SDS011;37008;52.210;21.112;2023-02-13T10:30:57;10.88;;;6.15;;
50988;SDS011;37008;52.210;21.112;2023-02-13T10:33:50;10.05;;;5.75;;
50988;SDS011;37008;52.210;21.112;2023-02-13T10:36:21;9.15;;;6.10;;
50988;SDS011;37008;52.210;21.112;2023-02-13T10:38:55;9.55;;;5.65;;
50988;SDS011;37008;52.210;21.112;2023-02-13T10:52:33;10.98;;;5.20;;
50988;SDS011;37008;52.210;21.112;2023-02-13T10:58:07;11.48;;;7.10;;
50988;SDS011;37008;52.210;21.112;2023-02-13T11:00:45;10.50;;;6.68;;
50988;SDS011;37008;52.210;21.112;2023-02-13T11:03:21;14.32;;;7.82;;
50988;SDS011;37008;52.210;21.112;2023-02-13T11:05:50;13.35;;;7.75;;
50988;SDS011;37008;52.210;21.112;2023-02-13T11:10:56;13.07;;;8.15;;
50988;SDS011;37008;52.210;21.112;2023-02-13T11:13:23;13.25;;;8.52;;
50988;SDS011;37008;52.210;21.112;2023-02-13T11:16:00;15.35;;;8.32;;
50988;SDS011;37008;52.210;21.112;2023-02-13T11:18:56;14.80;;;8.52;;
50988;SDS011;37008;52.210;21.112;2023-02-13T11:21:33;11.85;;;8.10;;
50988;SDS011;37008;52.210;21.112;2023-02-13T11:24:06;16.50;;;8.75;;
50988;SDS011;37008;52.210;21.112;2023-02-13T11:26:43;11.80;;;6.78;;
50988;SDS011;37008;52.210;21.112;2023-02-13T11:29:24;11.95;;;7.65;;
50988;SDS011;37008;52.210;21.112;2023-02-13T11:32:01;9.77;;;6.22;;
50988;SDS011;37008;52.210;21.112;2023-02-13T11:34:39;10.63;;;5.72;;
50988;SDS011;37008;52.210;21.112;2023-02-13T11:39:37;11.45;;;7.00;;
50988;SDS011;37008;52.210;21.112;2023-02-13T11:44:56;15.40;;;8.70;;
50988;SDS011;37008;52.210;21.112;2023-02-13T11:47:31;17.83;;;9.30;;
50988;SDS011;37008;52.210;21.112;2023-02-13T11:50:00;15.07;;;11.15;;
50988;SDS011;37008;52.210;21.112;2023-02-13T11:52:30;14.57;;;10.05;;
50988;SDS011;37008;52.210;21.112;2023-02-13T11:55:04;13.75;;;10.00;;
50988;SDS011;37008;52.210;21.112;2023-02-13T11:57:56;15.73;;;9.80;;
50988;SDS011;37008;52.210;21.112;2023-02-13T12:00:26;14.23;;;10.98;;
50988;SDS011;37008;52.210;21.112;2023-02-13T12:05:59;19.17;;;11.48;;
50988;SDS011;37008;52.210;21.112;2023-02-13T12:08:25;15.35;;;10.52;;
50988;SDS011;37008;52.210;21.112;2023-02-13T12:10:52;14.80;;;10.57;;
50988;SDS011;37008;52.210;21.112;2023-02-13T12:15:44;15.27;;;11.02;;
50988;SDS011;37008;52.210;21.112;2023-02-13T12:23:28;15.68;;;10.70;;
50988;SDS011;37008;52.210;21.112;2023-02-13T12:39:57;17.13;;;11.73;;
50988;SDS011;37008;52.210;21.112;2023-02-13T12:45:39;14.63;;;10.20;;
50988;SDS011;37008;52.210;21.112;2023-02-13T12:51:08;13.77;;;9.27;;
50988;SDS011;37008;52.210;21.112;2023-02-13T12:53:57;15.73;;;9.27;;
50988;SDS011;37008;52.210;21.112;2023-02-13T13:14:04;14.10;;;10.32;;
50988;SDS011;37008;52.210;21.112;2023-02-13T13:16:54;15.65;;;11.00;;
50988;SDS011;37008;52.210;21.112;2023-02-13T13:19:43;18.40;;;10.43;;
50988;SDS011;37008;52.210;21.112;2023-02-13T13:27:23;18.42;;;10.60;;
50988;SDS011;37008;52.210;21.112;2023-02-13T13:32:57;16.35;;;10.43;;
50988;SDS011;37008;52.210;21.112;2023-02-13T13:35:27;17.27;;;10.50;;
50988;SDS011;37008;52.210;21.112;2023-02-13T13:45:49;16.65;;;10.23;;
50988;SDS011;37008;52.210;21.112;2023-02-13T13:48:53;18.27;;;11.07;;
50988;SDS011;37008;52.210;21.112;2023-02-13T13:51:19;17.15;;;10.35;;
50988;SDS011;37008;52.210;21.112;2023-02-13T13:59:17;17.63;;;10.68;;
50988;SDS011;37008;52.210;21.112;2023-02-13T14:07:38;15.55;;;10.38;;
50988;SDS011;37008;52.210;21.112;2023-02-13T14:10:11;15.23;;;9.98;;
50988;SDS011;37008;52.210;21.112;2023-02-13T14:12:45;16.13;;;10.23;;
50988;SDS011;37008;52.210;21.112;2023-02-13T14:20:40;18.52;;;9.85;;
50988;SDS011;37008;52.210;21.112;2023-02-13T14:23:42;13.82;;;9.25;;
50988;SDS011;37008;52.210;21.112;2023-02-13T14:34:02;19.38;;;9.60;;
50988;SDS011;37008;52.210;21.112;2023-02-13T14:36:38;15.35;;;9.23;;
50988;SDS011;37008;52.210;21.112;2023-02-13T14:39:29;16.52;;;9.93;;
50988;SDS011;37008;52.210;21.112;2023-02-13T14:41:57;17.17;;;10.25;;
50988;SDS011;37008;52.210;21.112;2023-02-13T14:49:41;13.23;;;9.65;;
50988;SDS011;37008;52.210;21.112;2023-02-13T14:52:17;20.65;;;9.15;;
50988;SDS011;37008;52.210;21.112;2023-02-13T14:54:49;15.70;;;8.77;;
50988;SDS011;37008;52.210;21.112;2023-02-13T14:57:27;15.18;;;8.90;;
50988;SDS011;37008;52.210;21.112;2023-02-13T14:59:58;16.45;;;8.35;;
50988;SDS011;37008;52.210;21.112;2023-02-13T15:02:45;16.17;;;9.82;;
50988;SDS011;37008;52.210;21.112;2023-02-13T15:05:17;15.77;;;8.48;;
50988;SDS011;37008;52.210;21.112;2023-02-13T15:07:48;14.63;;;8.20;;
50988;SDS011;37008;52.210;21.112;2023-02-13T15:13:05;14.38;;;7.78;;
50988;SDS011;37008;52.210;21.112;2023-02-13T15:15:40;15.00;;;8.50;;
50988;SDS011;37008;52.210;21.112;2023-02-13T15:18:10;14.82;;;8.23;;
50988;SDS011;37008;52.210;21.112;2023-02-13T15:20:43;16.73;;;9.43;;
50988;SDS011;37008;52.210;21.112;2023-02-13T15:23:20;14.07;;;7.47;;
50988;SDS011;37008;52.210;21.112;2023-02-13T15:25:59;15.48;;;7.15;;
50988;SDS011;37008;52.210;21.112;2023-02-13T15:28:29;16.08;;;7.68;;
50988;SDS011;37008;52.210;21.112;2023-02-13T15:31:00;13.50;;;7.50;;
50988;SDS011;37008;52.210;21.112;2023-02-13T15:33:33;20.63;;;8.68;;
50988;SDS011;37008;52.210;21.112;2023-02-13T15:36:13;15.05;;;7.85;;
50988;SDS011;37008;52.210;21.112;2023-02-13T15:38:45;14.77;;;8.23;;
50988;SDS011;37008;52.210;21.112;2023-02-13T15:43:42;15.35;;;7.97;;
50988;SDS011;37008;52.210;21.112;2023-02-13T15:46:28;15.85;;;8.48;;
50988;SDS011;37008;52.210;21.112;2023-02-13T15:48:58;13.35;;;8.07;;
50988;SDS011;37008;52.210;21.112;2023-02-13T15:51:32;16.15;;;8.32;;
50988;SDS011;37008;52.210;21.112;2023-02-13T15:54:06;19.50;;;8.55;;
50988;SDS011;37008;52.210;21.112;2023-02-13T15:56:45;16.80;;;7.78;;
50988;SDS011;37008;52.210;21.112;2023-02-13T15:59:13;11.98;;;7.97;;
50988;SDS011;37008;52.210;21.112;2023-02-13T16:01:40;13.50;;;7.90;;
50988;SDS011;37008;52.210;21.112;2023-02-13T16:04:10;13.52;;;7.72;;
50988;SDS011;37008;52.210;21.112;2023-02-13T16:06:39;14.63;;;7.70;;
50988;SDS011;37008;52.210;21.112;2023-02-13T16:09:19;13.27;;;8.30;;
50988;SDS011;37008;52.210;21.112;2023-02-13T16:11:51;13.38;;;7.80;;
50988;SDS011;37008;52.210;21.112;2023-02-13T16:14:20;14.88;;;8.50;;
50988;SDS011;37008;52.210;21.112;2023-02-13T16:16:54;12.57;;;7.47;;
50988;SDS011;37008;52.210;21.112;2023-02-13T16:19:25;15.63;;;7.60;;
50988;SDS011;37008;52.210;21.112;2023-02-13T16:22:26;14.27;;;7.63;;
50988;SDS011;37008;52.210;21.112;2023-02-13T16:24:53;12.35;;;7.72;;
50988;SDS011;37008;52.210;21.112;2023-02-13T16:27:25;14.15;;;7.88;;
50988;SDS011;37008;52.210;21.112;2023-02-13T16:29:56;16.40;;;9.13;;
50988;SDS011;37008;52.210;21.112;2023-02-13T16:32:30;16.35;;;7.57;;
50988;SDS011;37008;52.210;21.112;2023-02-13T16:35:17;13.38;;;7.07;;
50988;SDS011;37008;52.210;21.112;2023-02-13T16:37:58;10.27;;;6.47;;
50988;SDS011;37008;52.210;21.112;2023-02-13T16:48:35;9.27;;;6.07;;
50988;SDS011;37008;52.210;21.112;2023-02-13T16:51:01;13.20;;;6.30;;
50988;SDS011;37008;52.210;21.112;2023-02-13T16:53:27;10.00;;;6.07;;
50988;SDS011;37008;52.210;21.112;2023-02-13T16:56:00;10.23;;;5.35;;
50988;SDS011;37008;52.210;21.112;2023-02-13T16:58:33;11.07;;;5.35;;
50988;SDS011;37008;52.210;21.112;2023-02-13T17:00:59;14.65;;;5.07;;
50988;SDS011;37008;52.210;21.112;2023-02-13T17:03:26;12.55;;;6.55;;
50988;SDS011;37008;52.210;21.112;2023-02-13T17:05:52;10.63;;;5.25;;
50988;SDS011;37008;52.210;21.112;2023-02-13T17:08:19;10.68;;;5.53;;
50988;SDS011;37008;52.210;21.112;2023-02-13T17:11:06;12.23;;;6.00;;
50988;SDS011;37008;52.210;21.112;2023-02-13T17:13:32;12.60;;;6.15;;
50988;SDS011;37008;52.210;21.112;2023-02-13T17:15:58;10.82;;;6.35;;
50988;SDS011;37008;52.210;21.112;2023-02-13T17:18:25;7.95;;;5.28;;
50988;SDS011;37008;52.210;21.112;2023-02-13T17:20:51;10.10;;;5.50;;
50988;SDS011;37008;52.210;21.112;2023-02-13T17:23:17;8.90;;;5.13;;
50988;SDS011;37008;52.210;21.112;2023-02-13T17:25:46;12.68;;;5.22;;
50988;SDS011;37008;52.210;21.112;2023-02-13T17:28:14;9.48;;;4.57;;
50988;SDS011;37008;52.210;21.112;2023-02-13T17:30:43;10.80;;;4.78;;
50988;SDS011;37008;52.210;21.112;2023-02-13T17:33:13;9.02;;;4.80;;
50988;SDS011;37008;52.210;21.112;2023-02-13T17:35:49;9.90;;;5.00;;
50988;SDS011;37008;52.210;21.112;2023-02-13T17:38:15;8.70;;;5.00;;
50988;SDS011;37008;52.210;21.112;2023-02-13T17:40:42;11.43;;;4.75;;
50988;SDS011;37008;52.210;21.112;2023-02-13T17:43:12;13.07;;;5.25;;
50988;SDS011;37008;52.210;21.112;2023-02-13T17:45:40;9.45;;;4.25;;
50988;SDS011;37008;52.210;21.112;2023-02-13T17:48:06;8.05;;;4.68;;
50988;SDS011;37008;52.210;21.112;2023-02-13T17:50:32;6.45;;;3.97;;
50988;SDS011;37008;52.210;21.112;2023-02-13T17:53:03;6.90;;;4.43;;
50988;SDS011;37008;52.210;21.112;2023-02-13T17:55:31;10.45;;;5.28;;
50988;SDS011;37008;52.210;21.112;2023-02-13T17:58:00;8.18;;;4.72;;
50988;SDS011;37008;52.210;21.112;2023-02-13T18:00:28;9.68;;;4.80;;
50988;SDS011;37008;52.210;21.112;2023-02-13T18:02:55;11.10;;;4.53;;
50988;SDS011;37008;52.210;21.112;2023-02-13T18:05:21;11.73;;;5.65;;